sensor_id;sensor_type;location;lat;lon;timestamp;P1;durP1;ratioP1;P2;durP2;ratioP2
21166;SDS011;10741;52.272;9.580;2022-07-29T00:00:43;2.93;;;1.40;;
21166;SDS011;10741;52.272;9.580;2022-07-29T00:03:12;3.67;;;0.97;;
21166;SDS011;10741;52.272;9.580;2022-07-29T00:05:39;3.07;;;1.40;;
21166;SDS011;10741;52.272;9.580;2022-07-29T00:08:05;3.40;;;1.00;;
21166;SDS011;10741;52.272;9.580;2022-07-29T00:10:32;4.57;;;1.20;;
21166;SDS011;10741;52.272;9.580;2022-07-29T00:12:58;2.67;;;1.10;;
21166;SDS011;10741;52.272;9.580;2022-07-29T00:15:23;2.23;;;1.20;;
21166;SDS011;10741;52.272;9.580;2022-07-29T00:17:49;4.70;;;1.27;;
21166;SDS011;10741;52.272;9.580;2022-07-29T00:20:15;2.33;;;1.20;;
21166;SDS011;10741;52.272;9.580;2022-07-29T00:22:41;2.70;;;1.00;;
21166;SDS011;10741;52.272;9.580;2022-07-29T00:25:06;3.63;;;1.27;;
21166;SDS011;10741;52.272;9.580;2022-07-29T00:27:33;1.20;;;0.97;;
21166;SDS011;10741;52.272;9.580;2022-07-29T00:30:00;3.70;;;1.30;;
21166;SDS011;10741;52.272;9.580;2022-07-29T00:32:26;2.13;;;1.20;;
21166;SDS011;10741;52.272;9.580;2022-07-29T00:34:51;5.27;;;1.10;;
21166;SDS011;10741;52.272;9.580;2022-07-29T00:37:36;1.93;;;1.00;;
21166;SDS011;10741;52.272;9.580;2022-07-29T00:40:02;1.50;;;0.87;;
21166;SDS011;10741;52.272;9.580;2022-07-29T00:42:28;5.10;;;1.27;;
21166;SDS011;10741;52.272;9.580;2022-07-29T00:44:54;2.13;;;0.93;;
21166;SDS011;10741;52.272;9.580;2022-07-29T00:47:19;4.80;;;1.20;;
21166;SDS011;10741;52.272;9.580;2022-07-29T00:49:45;3.40;;;1.13;;
21166;SDS011;10741;52.272;9.580;2022-07-29T00:52:11;2.10;;;1.17;;
21166;SDS011;10741;52.272;9.580;2022-07-29T00:54:38;2.13;;;0.90;;
21166;SDS011;10741;52.272;9.580;2022-07-29T00:57:05;1.80;;;1.10;;
21166;SDS011;10741;52.272;9.580;2022-07-29T00:59:33;1.87;;;1.00;;
21166;SDS011;10741;52.272;9.580;2022-07-29T01:01:59;2.37;;;1.03;;
21166;SDS011;10741;52.272;9.580;2022-07-29T01:04:25;2.27;;;1.03;;
21166;SDS011;10741;52.272;9.580;2022-07-29T01:06:52;1.90;;;1.00;;
21166;SDS011;10741;52.272;9.580;2022-07-29T01:09:19;2.30;;;1.13;;
21166;SDS011;10741;52.272;9.580;2022-07-29T01:11:46;2.07;;;1.30;;
21166;SDS011;10741;52.272;9.580;2022-07-29T01:14:13;3.67;;;1.00;;
21166;SDS011;10741;52.272;9.580;2022-07-29T01:16:51;2.10;;;1.20;;
21166;SDS011;10741;52.272;9.580;2022-07-29T01:30:36;3.10;;;1.00;;
21166;SDS011;10741;52.272;9.580;2022-07-29T01:33:09;3.10;;;1.20;;
21166;SDS011;10741;52.272;9.580;2022-07-29T01:35:58;1.20;;;0.90;;
21166;SDS011;10741;52.272;9.580;2022-07-29T01:38:28;5.73;;;1.00;;
21166;SDS011;10741;52.272;9.580;2022-07-29T01:40:58;3.83;;;1.00;;
21166;SDS011;10741;52.272;9.580;2022-07-29T01:43:42;3.73;;;1.10;;
21166;SDS011;10741;52.272;9.580;2022-07-29T01:46:17;1.47;;;1.20;;
21166;SDS011;10741;52.272;9.580;2022-07-29T01:48:53;2.80;;;1.20;;
21166;SDS011;10741;52.272;9.580;2022-07-29T01:51:33;1.60;;;1.03;;
21166;SDS011;10741;52.272;9.580;2022-07-29T01:54:17;4.60;;;1.20;;
21166;SDS011;10741;52.272;9.580;2022-07-29T01:56:43;1.20;;;1.00;;
21166;SDS011;10741;52.272;9.580;2022-07-29T01:59:13;3.60;;;1.10;;
21166;SDS011;10741;52.272;9.580;2022-07-29T02:01:40;1.87;;;0.90;;
21166;SDS011;10741;52.272;9.580;2022-07-29T02:04:08;3.63;;;1.10;;
21166;SDS011;10741;52.272;9.580;2022-07-29T02:06:36;2.60;;;1.17;;
21166;SDS011;10741;52.272;9.580;2022-07-29T02:09:03;2.60;;;1.20;;
21166;SDS011;10741;52.272;9.580;2022-07-29T02:11:31;2.07;;;1.20;;
21166;SDS011;10741;52.272;9.580;2022-07-29T02:13:59;2.17;;;1.27;;
21166;SDS011;10741;52.272;9.580;2022-07-29T02:16:27;2.73;;;1.00;;
21166;SDS011;10741;52.272;9.580;2022-07-29T02:18:55;3.53;;;1.30;;
21166;SDS011;10741;52.272;9.580;2022-07-29T02:21:23;1.30;;;1.20;;
21166;SDS011;10741;52.272;9.580;2022-07-29T02:23:51;2.73;;;1.40;;
21166;SDS011;10741;52.272;9.580;2022-07-29T02:26:19;3.00;;;1.30;;
21166;SDS011;10741;52.272;9.580;2022-07-29T02:28:45;1.90;;;1.10;;
21166;SDS011;10741;52.272;9.580;2022-07-29T02:31:13;2.80;;;1.30;;
21166;SDS011;10741;52.272;9.580;2022-07-29T02:33:42;2.67;;;1.20;;
21166;SDS011;10741;52.272;9.580;2022-07-29T02:36:09;3.53;;;1.37;;
21166;SDS011;10741;52.272;9.580;2022-07-29T02:38:35;1.80;;;1.30;;
21166;SDS011;10741;52.272;9.580;2022-07-29T02:41:23;2.93;;;1.07;;
21166;SDS011;10741;52.272;9.580;2022-07-29T02:43:58;3.20;;;1.30;;
21166;SDS011;10741;52.272;9.580;2022-07-29T02:46:33;3.03;;;1.20;;
21166;SDS011;10741;52.272;9.580;2022-07-29T02:49:18;3.90;;;1.30;;
21166;SDS011;10741;52.272;9.580;2022-07-29T02:51:54;3.63;;;1.40;;
21166;SDS011;10741;52.272;9.580;2022-07-29T02:54:33;3.60;;;1.40;;
21166;SDS011;10741;52.272;9.580;2022-07-29T02:57:00;4.37;;;1.47;;
21166;SDS011;10741;52.272;9.580;2022-07-29T02:59:31;2.63;;;1.33;;
21166;SDS011;10741;52.272;9.580;2022-07-29T03:02:01;2.27;;;1.23;;
21166;SDS011;10741;52.272;9.580;2022-07-29T03:04:29;4.63;;;1.50;;
21166;SDS011;10741;52.272;9.580;2022-07-29T03:06:58;4.43;;;1.70;;
21166;SDS011;10741;52.272;9.580;2022-07-29T03:09:25;5.17;;;1.37;;
21166;SDS011;10741;52.272;9.580;2022-07-29T03:11:52;4.27;;;1.40;;
21166;SDS011;10741;52.272;9.580;2022-07-29T03:14:20;5.77;;;1.23;;
21166;SDS011;10741;52.272;9.580;2022-07-29T03:16:48;4.23;;;1.27;;
21166;SDS011;10741;52.272;9.580;2022-07-29T03:19:14;2.17;;;1.30;;
21166;SDS011;10741;52.272;9.580;2022-07-29T03:21:41;1.90;;;1.20;;
21166;SDS011;10741;52.272;9.580;2022-07-29T03:24:07;4.93;;;1.50;;
21166;SDS011;10741;52.272;9.580;2022-07-29T03:26:32;3.47;;;1.23;;
21166;SDS011;10741;52.272;9.580;2022-07-29T03:28:58;3.70;;;1.30;;
21166;SDS011;10741;52.272;9.580;2022-07-29T03:31:24;3.13;;;1.30;;
21166;SDS011;10741;52.272;9.580;2022-07-29T03:33:50;3.50;;;1.47;;
21166;SDS011;10741;52.272;9.580;2022-07-29T03:36:16;3.70;;;1.60;;
21166;SDS011;10741;52.272;9.580;2022-07-29T03:38:42;4.10;;;1.30;;
21166;SDS011;10741;52.272;9.580;2022-07-29T03:41:10;5.50;;;1.40;;
21166;SDS011;10741;52.272;9.580;2022-07-29T03:43:38;5.13;;;1.43;;
21166;SDS011;10741;52.272;9.580;2022-07-29T03:46:06;4.53;;;1.30;;
21166;SDS011;10741;52.272;9.580;2022-07-29T03:48:34;1.90;;;1.10;;
21166;SDS011;10741;52.272;9.580;2022-07-29T03:51:05;5.03;;;1.77;;
21166;SDS011;10741;52.272;9.580;2022-07-29T03:53:31;2.40;;;1.10;;
21166;SDS011;10741;52.272;9.580;2022-07-29T03:55:58;3.87;;;1.37;;
21166;SDS011;10741;52.272;9.580;2022-07-29T03:58:26;5.87;;;1.50;;
21166;SDS011;10741;52.272;9.580;2022-07-29T04:00:53;2.67;;;1.20;;
21166;SDS011;10741;52.272;9.580;2022-07-29T04:03:20;4.73;;;1.73;;
21166;SDS011;10741;52.272;9.580;2022-07-29T04:06:04;3.23;;;1.37;;
21166;SDS011;10741;52.272;9.580;2022-07-29T04:08:32;2.47;;;1.40;;
21166;SDS011;10741;52.272;9.580;2022-07-29T04:10:59;4.03;;;1.60;;
21166;SDS011;10741;52.272;9.580;2022-07-29T04:13:25;2.50;;;1.20;;
21166;SDS011;10741;52.272;9.580;2022-07-29T04:15:51;2.20;;;1.33;;
21166;SDS011;10741;52.272;9.580;2022-07-29T04:18:16;2.80;;;1.30;;
21166;SDS011;10741;52.272;9.580;2022-07-29T04:20:42;3.83;;;1.57;;
21166;SDS011;10741;52.272;9.580;2022-07-29T04:23:08;1.90;;;1.10;;
21166;SDS011;10741;52.272;9.580;2022-07-29T04:25:36;2.77;;;1.23;;
21166;SDS011;10741;52.272;9.580;2022-07-29T04:28:03;2.10;;;1.37;;
21166;SDS011;10741;52.272;9.580;2022-07-29T04:30:29;3.50;;;1.50;;
21166;SDS011;10741;52.272;9.580;2022-07-29T04:32:56;2.37;;;1.30;;
21166;SDS011;10741;52.272;9.580;2022-07-29T04:35:22;3.60;;;1.40;;
21166;SDS011;10741;52.272;9.580;2022-07-29T04:37:48;6.93;;;1.43;;
21166;SDS011;10741;52.272;9.580;2022-07-29T04:40:14;6.53;;;1.40;;
21166;SDS011;10741;52.272;9.580;2022-07-29T04:42:40;3.67;;;1.10;;
21166;SDS011;10741;52.272;9.580;2022-07-29T04:45:06;5.37;;;1.60;;
21166;SDS011;10741;52.272;9.580;2022-07-29T04:47:31;4.33;;;1.57;;
21166;SDS011;10741;52.272;9.580;2022-07-29T04:49:57;3.27;;;1.50;;
21166;SDS011;10741;52.272;9.580;2022-07-29T04:52:23;2.67;;;1.17;;
21166;SDS011;10741;52.272;9.580;2022-07-29T04:54:49;6.17;;;1.30;;
21166;SDS011;10741;52.272;9.580;2022-07-29T04:57:15;6.00;;;1.50;;
21166;SDS011;10741;52.272;9.580;2022-07-29T04:59:40;3.37;;;1.40;;
21166;SDS011;10741;52.272;9.580;2022-07-29T05:02:06;6.07;;;1.60;;
21166;SDS011;10741;52.272;9.580;2022-07-29T05:04:32;5.70;;;1.60;;
21166;SDS011;10741;52.272;9.580;2022-07-29T05:06:57;2.97;;;1.60;;
21166;SDS011;10741;52.272;9.580;2022-07-29T05:09:23;3.10;;;1.50;;
21166;SDS011;10741;52.272;9.580;2022-07-29T05:11:49;5.13;;;1.60;;
21166;SDS011;10741;52.272;9.580;2022-07-29T05:14:15;2.60;;;1.40;;
21166;SDS011;10741;52.272;9.580;2022-07-29T05:16:41;2.10;;;1.20;;
21166;SDS011;10741;52.272;9.580;2022-07-29T05:19:08;2.63;;;1.37;;
21166;SDS011;10741;52.272;9.580;2022-07-29T05:21:34;3.90;;;1.40;;
21166;SDS011;10741;52.272;9.580;2022-07-29T05:23:59;4.17;;;1.70;;
21166;SDS011;10741;52.272;9.580;2022-07-29T05:26:26;5.03;;;1.43;;
21166;SDS011;10741;52.272;9.580;2022-07-29T05:28:51;3.57;;;1.47;;
21166;SDS011;10741;52.272;9.580;2022-07-29T05:31:18;6.03;;;1.60;;
21166;SDS011;10741;52.272;9.580;2022-07-29T05:33:44;4.07;;;1.40;;
21166;SDS011;10741;52.272;9.580;2022-07-29T05:36:10;7.13;;;1.47;;
21166;SDS011;10741;52.272;9.580;2022-07-29T05:38:36;3.87;;;1.23;;
21166;SDS011;10741;52.272;9.580;2022-07-29T05:41:02;2.70;;;1.60;;
21166;SDS011;10741;52.272;9.580;2022-07-29T05:43:29;3.63;;;1.63;;
21166;SDS011;10741;52.272;9.580;2022-07-29T05:45:55;1.70;;;1.33;;
21166;SDS011;10741;52.272;9.580;2022-07-29T05:48:21;2.77;;;1.40;;
21166;SDS011;10741;52.272;9.580;2022-07-29T05:50:46;5.73;;;1.30;;
21166;SDS011;10741;52.272;9.580;2022-07-29T05:53:12;3.77;;;1.20;;
21166;SDS011;10741;52.272;9.580;2022-07-29T05:55:38;3.27;;;1.40;;
21166;SDS011;10741;52.272;9.580;2022-07-29T05:58:04;5.63;;;1.40;;
21166;SDS011;10741;52.272;9.580;2022-07-29T06:00:30;3.07;;;1.37;;
21166;SDS011;10741;52.272;9.580;2022-07-29T06:02:55;5.20;;;1.70;;
21166;SDS011;10741;52.272;9.580;2022-07-29T06:05:22;2.97;;;1.50;;
21166;SDS011;10741;52.272;9.580;2022-07-29T06:07:48;3.90;;;1.47;;
21166;SDS011;10741;52.272;9.580;2022-07-29T06:10:14;3.67;;;1.37;;
21166;SDS011;10741;52.272;9.580;2022-07-29T06:12:40;5.10;;;1.30;;
21166;SDS011;10741;52.272;9.580;2022-07-29T06:15:06;4.97;;;2.07;;
21166;SDS011;10741;52.272;9.580;2022-07-29T06:17:32;2.27;;;1.33;;
21166;SDS011;10741;52.272;9.580;2022-07-29T06:19:58;5.03;;;1.50;;
21166;SDS011;10741;52.272;9.580;2022-07-29T06:22:23;3.50;;;1.70;;
21166;SDS011;10741;52.272;9.580;2022-07-29T06:24:49;3.97;;;1.33;;
21166;SDS011;10741;52.272;9.580;2022-07-29T06:27:15;3.53;;;1.53;;
21166;SDS011;10741;52.272;9.580;2022-07-29T06:29:41;5.67;;;1.63;;
21166;SDS011;10741;52.272;9.580;2022-07-29T06:32:07;4.77;;;1.27;;
21166;SDS011;10741;52.272;9.580;2022-07-29T06:34:34;4.23;;;1.87;;
21166;SDS011;10741;52.272;9.580;2022-07-29T06:37:00;6.03;;;1.80;;
21166;SDS011;10741;52.272;9.580;2022-07-29T06:39:30;3.13;;;1.40;;
21166;SDS011;10741;52.272;9.580;2022-07-29T06:41:56;3.63;;;2.00;;
21166;SDS011;10741;52.272;9.580;2022-07-29T06:44:22;3.07;;;1.50;;
21166;SDS011;10741;52.272;9.580;2022-07-29T06:46:47;4.47;;;1.60;;
21166;SDS011;10741;52.272;9.580;2022-07-29T06:49:15;3.70;;;1.63;;
21166;SDS011;10741;52.272;9.580;2022-07-29T06:51:41;5.00;;;1.73;;
21166;SDS011;10741;52.272;9.580;2022-07-29T06:54:06;5.83;;;1.90;;
21166;SDS011;10741;52.272;9.580;2022-07-29T06:56:33;5.20;;;1.80;;
21166;SDS011;10741;52.272;9.580;2022-07-29T06:59:03;6.10;;;1.53;;
21166;SDS011;10741;52.272;9.580;2022-07-29T07:01:29;5.57;;;1.97;;
21166;SDS011;10741;52.272;9.580;2022-07-29T07:03:55;4.30;;;1.83;;
21166;SDS011;10741;52.272;9.580;2022-07-29T07:06:21;6.00;;;1.70;;
21166;SDS011;10741;52.272;9.580;2022-07-29T07:08:47;3.13;;;1.70;;
21166;SDS011;10741;52.272;9.580;2022-07-29T07:11:12;5.67;;;1.90;;
21166;SDS011;10741;52.272;9.580;2022-07-29T07:13:38;4.13;;;1.80;;
21166;SDS011;10741;52.272;9.580;2022-07-29T07:16:04;3.63;;;1.97;;
21166;SDS011;10741;52.272;9.580;2022-07-29T07:18:30;5.23;;;1.67;;
21166;SDS011;10741;52.272;9.580;2022-07-29T07:20:56;11.23;;;2.23;;
21166;SDS011;10741;52.272;9.580;2022-07-29T07:23:22;5.83;;;2.00;;
21166;SDS011;10741;52.272;9.580;2022-07-29T07:25:48;4.07;;;1.90;;
21166;SDS011;10741;52.272;9.580;2022-07-29T07:28:14;5.27;;;2.00;;
21166;SDS011;10741;52.272;9.580;2022-07-29T07:30:40;4.60;;;1.80;;
21166;SDS011;10741;52.272;9.580;2022-07-29T07:33:05;5.50;;;2.20;;
21166;SDS011;10741;52.272;9.580;2022-07-29T07:35:31;4.27;;;2.10;;
21166;SDS011;10741;52.272;9.580;2022-07-29T07:37:57;6.93;;;1.83;;
21166;SDS011;10741;52.272;9.580;2022-07-29T07:40:23;7.17;;;2.20;;
21166;SDS011;10741;52.272;9.580;2022-07-29T07:42:49;4.10;;;2.03;;
21166;SDS011;10741;52.272;9.580;2022-07-29T07:45:15;2.93;;;1.90;;
21166;SDS011;10741;52.272;9.580;2022-07-29T07:47:42;6.10;;;2.03;;
21166;SDS011;10741;52.272;9.580;2022-07-29T07:50:08;3.20;;;2.20;;
21166;SDS011;10741;52.272;9.580;2022-07-29T07:52:37;12.77;;;1.83;;
21166;SDS011;10741;52.272;9.580;2022-07-29T07:55:12;6.10;;;2.03;;
21166;SDS011;10741;52.272;9.580;2022-07-29T07:57:38;4.47;;;1.90;;
21166;SDS011;10741;52.272;9.580;2022-07-29T08:00:04;7.33;;;1.90;;
21166;SDS011;10741;52.272;9.580;2022-07-29T08:02:31;6.93;;;2.23;;
21166;SDS011;10741;52.272;9.580;2022-07-29T08:04:57;5.87;;;2.30;;
21166;SDS011;10741;52.272;9.580;2022-07-29T08:07:24;5.30;;;1.83;;
21166;SDS011;10741;52.272;9.580;2022-07-29T08:09:50;4.80;;;2.13;;
21166;SDS011;10741;52.272;9.580;2022-07-29T08:12:16;5.20;;;2.00;;
21166;SDS011;10741;52.272;9.580;2022-07-29T08:14:41;7.80;;;1.87;;
21166;SDS011;10741;52.272;9.580;2022-07-29T08:17:07;4.73;;;2.17;;
21166;SDS011;10741;52.272;9.580;2022-07-29T08:19:33;6.43;;;1.90;;
21166;SDS011;10741;52.272;9.580;2022-07-29T08:21:59;4.90;;;1.97;;
21166;SDS011;10741;52.272;9.580;2022-07-29T08:24:24;6.87;;;2.13;;
21166;SDS011;10741;52.272;9.580;2022-07-29T08:27:08;6.17;;;2.20;;
21166;SDS011;10741;52.272;9.580;2022-07-29T08:29:38;3.37;;;1.57;;
21166;SDS011;10741;52.272;9.580;2022-07-29T08:32:05;4.23;;;1.90;;
21166;SDS011;10741;52.272;9.580;2022-07-29T08:34:31;6.63;;;2.03;;
21166;SDS011;10741;52.272;9.580;2022-07-29T08:36:57;5.70;;;1.97;;
21166;SDS011;10741;52.272;9.580;2022-07-29T08:39:23;7.47;;;1.80;;
21166;SDS011;10741;52.272;9.580;2022-07-29T08:41:50;7.63;;;2.23;;
21166;SDS011;10741;52.272;9.580;2022-07-29T08:44:16;7.07;;;2.33;;
21166;SDS011;10741;52.272;9.580;2022-07-29T08:46:43;6.73;;;1.90;;
21166;SDS011;10741;52.272;9.580;2022-07-29T08:49:09;5.30;;;2.20;;
21166;SDS011;10741;52.272;9.580;2022-07-29T08:51:36;6.40;;;2.03;;
21166;SDS011;10741;52.272;9.580;2022-07-29T08:54:04;5.43;;;2.00;;
21166;SDS011;10741;52.272;9.580;2022-07-29T08:56:31;6.27;;;2.20;;
21166;SDS011;10741;52.272;9.580;2022-07-29T08:58:58;4.23;;;1.73;;
21166;SDS011;10741;52.272;9.580;2022-07-29T09:01:27;2.70;;;1.83;;
21166;SDS011;10741;52.272;9.580;2022-07-29T09:03:57;6.37;;;1.93;;
21166;SDS011;10741;52.272;9.580;2022-07-29T09:06:26;8.17;;;2.50;;
21166;SDS011;10741;52.272;9.580;2022-07-29T09:08:58;5.50;;;2.07;;
21166;SDS011;10741;52.272;9.580;2022-07-29T09:11:25;5.23;;;2.17;;
21166;SDS011;10741;52.272;9.580;2022-07-29T09:13:51;8.37;;;2.37;;
21166;SDS011;10741;52.272;9.580;2022-07-29T09:16:17;5.70;;;2.50;;
21166;SDS011;10741;52.272;9.580;2022-07-29T09:18:44;3.90;;;2.30;;
21166;SDS011;10741;52.272;9.580;2022-07-29T09:21:12;4.87;;;2.43;;
21166;SDS011;10741;52.272;9.580;2022-07-29T09:24:08;8.10;;;2.67;;
21166;SDS011;10741;52.272;9.580;2022-07-29T09:26:45;7.27;;;2.37;;
21166;SDS011;10741;52.272;9.580;2022-07-29T09:29:15;3.87;;;2.60;;
21166;SDS011;10741;52.272;9.580;2022-07-29T09:31:44;6.80;;;2.30;;
21166;SDS011;10741;52.272;9.580;2022-07-29T09:34:13;5.30;;;2.47;;
21166;SDS011;10741;52.272;9.580;2022-07-29T09:39:07;3.73;;;2.30;;
21166;SDS011;10741;52.272;9.580;2022-07-29T09:41:49;5.67;;;2.63;;
21166;SDS011;10741;52.272;9.580;2022-07-29T09:44:20;9.37;;;2.40;;
21166;SDS011;10741;52.272;9.580;2022-07-29T09:49:23;8.33;;;2.70;;
21166;SDS011;10741;52.272;9.580;2022-07-29T09:51:59;5.30;;;2.63;;
21166;SDS011;10741;52.272;9.580;2022-07-29T09:54:29;7.07;;;2.70;;
21166;SDS011;10741;52.272;9.580;2022-07-29T09:57:01;9.23;;;2.30;;
21166;SDS011;10741;52.272;9.580;2022-07-29T09:59:31;6.63;;;3.00;;
21166;SDS011;10741;52.272;9.580;2022-07-29T10:01:58;3.37;;;2.17;;
21166;SDS011;10741;52.272;9.580;2022-07-29T10:04:35;8.77;;;3.00;;
21166;SDS011;10741;52.272;9.580;2022-07-29T10:07:05;7.13;;;2.30;;
21166;SDS011;10741;52.272;9.580;2022-07-29T10:09:32;6.87;;;3.10;;
21166;SDS011;10741;52.272;9.580;2022-07-29T10:12:11;7.67;;;2.67;;
21166;SDS011;10741;52.272;9.580;2022-07-29T10:14:41;6.20;;;2.57;;
21166;SDS011;10741;52.272;9.580;2022-07-29T10:17:08;6.20;;;2.50;;
21166;SDS011;10741;52.272;9.580;2022-07-29T10:19:35;7.50;;;2.80;;
21166;SDS011;10741;52.272;9.580;2022-07-29T10:22:06;7.77;;;2.87;;
21166;SDS011;10741;52.272;9.580;2022-07-29T10:24:33;9.73;;;2.97;;
21166;SDS011;10741;52.272;9.580;2022-07-29T10:27:01;6.20;;;2.93;;
21166;SDS011;10741;52.272;9.580;2022-07-29T10:29:28;9.13;;;3.00;;
21166;SDS011;10741;52.272;9.580;2022-07-29T10:37:46;7.13;;;3.00;;
21166;SDS011;10741;52.272;9.580;2022-07-29T10:40:34;6.77;;;2.90;;
21166;SDS011;10741;52.272;9.580;2022-07-29T10:43:29;9.80;;;3.23;;
21166;SDS011;10741;52.272;9.580;2022-07-29T10:46:01;8.23;;;3.40;;
21166;SDS011;10741;52.272;9.580;2022-07-29T10:48:27;11.90;;;3.67;;
21166;SDS011;10741;52.272;9.580;2022-07-29T10:53:20;7.90;;;2.73;;
21166;SDS011;10741;52.272;9.580;2022-07-29T10:55:50;6.37;;;2.87;;
21166;SDS011;10741;52.272;9.580;2022-07-29T10:58:18;6.60;;;2.70;;
21166;SDS011;10741;52.272;9.580;2022-07-29T11:00:47;7.63;;;2.73;;
21166;SDS011;10741;52.272;9.580;2022-07-29T11:04:00;4.97;;;3.07;;
21166;SDS011;10741;52.272;9.580;2022-07-29T11:06:11;7.23;;;2.90;;
21166;SDS011;10741;52.272;9.580;2022-07-29T11:08:38;7.63;;;3.13;;
21166;SDS011;10741;52.272;9.580;2022-07-29T11:16:11;7.90;;;3.13;;
21166;SDS011;10741;52.272;9.580;2022-07-29T11:19:18;7.50;;;2.90;;
21166;SDS011;10741;52.272;9.580;2022-07-29T11:21:43;6.27;;;2.80;;
21166;SDS011;10741;52.272;9.580;2022-07-29T11:24:15;12.10;;;3.20;;
21166;SDS011;10741;52.272;9.580;2022-07-29T11:29:49;9.73;;;3.17;;
21166;SDS011;10741;52.272;9.580;2022-07-29T11:32:15;6.37;;;2.83;;
21166;SDS011;10741;52.272;9.580;2022-07-29T11:34:44;9.20;;;3.00;;
21166;SDS011;10741;52.272;9.580;2022-07-29T11:47:36;7.50;;;2.57;;
21166;SDS011;10741;52.272;9.580;2022-07-29T11:50:05;7.37;;;2.73;;
21166;SDS011;10741;52.272;9.580;2022-07-29T11:52:33;4.73;;;2.90;;
21166;SDS011;10741;52.272;9.580;2022-07-29T11:55:02;10.50;;;3.03;;
21166;SDS011;10741;52.272;9.580;2022-07-29T11:57:29;5.63;;;2.67;;
21166;SDS011;10741;52.272;9.580;2022-07-29T11:59:57;6.83;;;3.40;;
21166;SDS011;10741;52.272;9.580;2022-07-29T12:02:23;5.70;;;3.30;;
21166;SDS011;10741;52.272;9.580;2022-07-29T12:04:52;9.63;;;3.10;;
21166;SDS011;10741;52.272;9.580;2022-07-29T12:07:30;8.13;;;3.40;;
21166;SDS011;10741;52.272;9.580;2022-07-29T12:09:57;12.53;;;3.47;;
21166;SDS011;10741;52.272;9.580;2022-07-29T12:12:23;10.17;;;3.77;;
21166;SDS011;10741;52.272;9.580;2022-07-29T12:14:49;5.87;;;3.17;;
21166;SDS011;10741;52.272;9.580;2022-07-29T12:19:55;5.73;;;3.30;;
21166;SDS011;10741;52.272;9.580;2022-07-29T12:22:27;8.30;;;3.33;;
21166;SDS011;10741;52.272;9.580;2022-07-29T12:25:03;7.87;;;3.30;;
21166;SDS011;10741;52.272;9.580;2022-07-29T12:27:39;6.73;;;3.53;;
21166;SDS011;10741;52.272;9.580;2022-07-29T12:30:09;10.47;;;3.67;;
21166;SDS011;10741;52.272;9.580;2022-07-29T12:32:38;7.47;;;3.20;;
21166;SDS011;10741;52.272;9.580;2022-07-29T12:35:10;5.10;;;3.00;;
21166;SDS011;10741;52.272;9.580;2022-07-29T12:37:39;8.90;;;3.60;;
21166;SDS011;10741;52.272;9.580;2022-07-29T12:40:07;9.57;;;3.20;;
21166;SDS011;10741;52.272;9.580;2022-07-29T12:42:35;10.77;;;3.87;;
21166;SDS011;10741;52.272;9.580;2022-07-29T12:45:02;8.40;;;3.47;;
21166;SDS011;10741;52.272;9.580;2022-07-29T12:47:29;9.80;;;3.50;;
21166;SDS011;10741;52.272;9.580;2022-07-29T12:50:11;7.30;;;3.10;;
21166;SDS011;10741;52.272;9.580;2022-07-29T12:52:43;7.43;;;3.40;;
21166;SDS011;10741;52.272;9.580;2022-07-29T12:55:10;11.10;;;3.57;;
21166;SDS011;10741;52.272;9.580;2022-07-29T12:57:46;8.07;;;3.10;;
21166;SDS011;10741;52.272;9.580;2022-07-29T13:00:13;5.67;;;3.17;;
21166;SDS011;10741;52.272;9.580;2022-07-29T13:02:40;7.93;;;3.33;;
21166;SDS011;10741;52.272;9.580;2022-07-29T13:05:08;5.33;;;3.00;;
21166;SDS011;10741;52.272;9.580;2022-07-29T13:07:36;5.93;;;3.63;;
21166;SDS011;10741;52.272;9.580;2022-07-29T13:10:23;7.17;;;3.10;;
21166;SDS011;10741;52.272;9.580;2022-07-29T13:13:03;5.27;;;3.80;;
21166;SDS011;10741;52.272;9.580;2022-07-29T13:15:31;8.87;;;3.50;;
21166;SDS011;10741;52.272;9.580;2022-07-29T13:17:57;4.73;;;3.37;;
21166;SDS011;10741;52.272;9.580;2022-07-29T13:20:24;8.33;;;3.20;;
21166;SDS011;10741;52.272;9.580;2022-07-29T13:22:52;7.93;;;3.50;;
21166;SDS011;10741;52.272;9.580;2022-07-29T13:25:25;6.27;;;3.60;;
21166;SDS011;10741;52.272;9.580;2022-07-29T13:27:52;6.10;;;3.03;;
21166;SDS011;10741;52.272;9.580;2022-07-29T13:30:19;8.93;;;3.00;;
21166;SDS011;10741;52.272;9.580;2022-07-29T13:32:46;8.50;;;3.30;;
21166;SDS011;10741;52.272;9.580;2022-07-29T13:35:12;5.13;;;2.60;;
21166;SDS011;10741;52.272;9.580;2022-07-29T13:37:38;7.50;;;3.30;;
21166;SDS011;10741;52.272;9.580;2022-07-29T13:40:05;5.87;;;3.00;;
21166;SDS011;10741;52.272;9.580;2022-07-29T13:42:34;6.90;;;3.00;;
21166;SDS011;10741;52.272;9.580;2022-07-29T13:45:00;6.97;;;2.60;;
21166;SDS011;10741;52.272;9.580;2022-07-29T13:47:27;6.83;;;2.77;;
21166;SDS011;10741;52.272;9.580;2022-07-29T13:49:53;6.63;;;2.90;;
21166;SDS011;10741;52.272;9.580;2022-07-29T13:52:19;8.00;;;2.70;;
21166;SDS011;10741;52.272;9.580;2022-07-29T13:54:45;7.00;;;2.60;;
21166;SDS011;10741;52.272;9.580;2022-07-29T13:57:12;5.47;;;2.43;;
21166;SDS011;10741;52.272;9.580;2022-07-29T13:59:38;8.13;;;2.80;;
21166;SDS011;10741;52.272;9.580;2022-07-29T14:02:05;8.43;;;3.30;;
21166;SDS011;10741;52.272;9.580;2022-07-29T14:04:31;10.43;;;2.80;;
21166;SDS011;10741;52.272;9.580;2022-07-29T14:06:58;6.10;;;3.20;;
21166;SDS011;10741;52.272;9.580;2022-07-29T14:09:24;5.60;;;2.67;;
21166;SDS011;10741;52.272;9.580;2022-07-29T14:11:49;6.90;;;3.10;;
21166;SDS011;10741;52.272;9.580;2022-07-29T14:14:17;13.83;;;3.77;;
21166;SDS011;10741;52.272;9.580;2022-07-29T14:16:44;9.27;;;3.30;;
21166;SDS011;10741;52.272;9.580;2022-07-29T14:19:10;6.73;;;3.43;;
21166;SDS011;10741;52.272;9.580;2022-07-29T14:21:36;4.43;;;3.07;;
21166;SDS011;10741;52.272;9.580;2022-07-29T14:24:02;8.13;;;3.30;;
21166;SDS011;10741;52.272;9.580;2022-07-29T14:26:28;5.73;;;3.50;;
21166;SDS011;10741;52.272;9.580;2022-07-29T14:28:54;9.77;;;3.50;;
21166;SDS011;10741;52.272;9.580;2022-07-29T14:31:20;6.50;;;3.53;;
21166;SDS011;10741;52.272;9.580;2022-07-29T14:33:46;6.90;;;3.80;;
21166;SDS011;10741;52.272;9.580;2022-07-29T14:36:11;7.03;;;3.70;;
21166;SDS011;10741;52.272;9.580;2022-07-29T14:38:37;6.57;;;3.50;;
21166;SDS011;10741;52.272;9.580;2022-07-29T14:41:03;8.20;;;3.60;;
21166;SDS011;10741;52.272;9.580;2022-07-29T14:43:29;7.47;;;3.37;;
21166;SDS011;10741;52.272;9.580;2022-07-29T14:45:55;6.00;;;3.27;;
21166;SDS011;10741;52.272;9.580;2022-07-29T14:48:21;6.20;;;3.50;;
21166;SDS011;10741;52.272;9.580;2022-07-29T14:50:46;6.80;;;3.60;;
21166;SDS011;10741;52.272;9.580;2022-07-29T14:53:12;6.20;;;3.33;;
21166;SDS011;10741;52.272;9.580;2022-07-29T14:55:38;13.07;;;3.50;;
21166;SDS011;10741;52.272;9.580;2022-07-29T14:58:05;7.83;;;3.27;;
21166;SDS011;10741;52.272;9.580;2022-07-29T15:00:31;11.53;;;3.80;;
21166;SDS011;10741;52.272;9.580;2022-07-29T15:02:58;7.00;;;3.53;;
21166;SDS011;10741;52.272;9.580;2022-07-29T15:05:25;8.90;;;3.37;;
21166;SDS011;10741;52.272;9.580;2022-07-29T15:07:51;5.90;;;2.73;;
21166;SDS011;10741;52.272;9.580;2022-07-29T15:10:17;6.50;;;2.83;;
21166;SDS011;10741;52.272;9.580;2022-07-29T15:12:43;10.07;;;3.07;;
21166;SDS011;10741;52.272;9.580;2022-07-29T15:15:09;8.23;;;3.17;;
21166;SDS011;10741;52.272;9.580;2022-07-29T15:17:35;6.13;;;2.80;;
21166;SDS011;10741;52.272;9.580;2022-07-29T15:20:00;10.30;;;3.27;;
21166;SDS011;10741;52.272;9.580;2022-07-29T15:22:26;5.93;;;2.83;;
21166;SDS011;10741;52.272;9.580;2022-07-29T15:24:52;6.97;;;3.00;;
21166;SDS011;10741;52.272;9.580;2022-07-29T15:27:18;9.43;;;2.97;;
21166;SDS011;10741;52.272;9.580;2022-07-29T15:29:44;7.60;;;3.17;;
21166;SDS011;10741;52.272;9.580;2022-07-29T15:32:09;7.00;;;2.80;;
21166;SDS011;10741;52.272;9.580;2022-07-29T15:34:36;7.83;;;3.73;;
21166;SDS011;10741;52.272;9.580;2022-07-29T15:37:02;6.23;;;3.17;;
21166;SDS011;10741;52.272;9.580;2022-07-29T15:39:29;5.00;;;3.10;;